TAP1716 LPMA-LPFR
Flight info
| Callsign | TAP1716 |
|---|---|
| Flight time | 1h 19m |
| Altitude | 38000 |
| Route | DEGUN DCT NARTA DCT GIMAL |
| Aircraft | A319/M-SDE3FGHIJ1RWXYZ/LB1 |
Departure
| Time | 2026-05-07 12:46 |
|---|---|
| Airport | Cristiano Ronaldo International Airport (LPMA) |
Arrival
| Time | 2026-05-07 14:05 |
|---|---|
| Airport | Faro - Gago Coutinho International Airport (LPFR) |
| Time | Latitude | Longitude | Altitude | Speed | Heading |
|---|---|---|---|---|---|
| 2026-05-07 12:17 | 32.69386 | -16.77628 | 170 ft | 0 kts | 138° |
| 2026-05-07 12:38 | 32.69395 | -16.77637 | 169 ft | 4 kts | 138° |
| 2026-05-07 12:38 | 32.69412 | -16.77655 | 169 ft | 3 kts | 139° |
| 2026-05-07 12:38 | 32.69434 | -16.77667 | 169 ft | 4 kts | 198° |
| 2026-05-07 12:38 | 32.69455 | -16.77651 | 169 ft | 3 kts | 226° |
| 2026-05-07 12:39 | 32.69466 | -16.77637 | 169 ft | 0 kts | 226° |
| 2026-05-07 12:40 | 32.69466 | -16.77638 | 169 ft | 0 kts | 226° |
| 2026-05-07 12:40 | 32.69457 | -16.77649 | 169 ft | 4 kts | 226° |
| 2026-05-07 12:41 | 32.69422 | -16.77691 | 176 ft | 10 kts | 226° |
| 2026-05-07 12:41 | 32.69361 | -16.77766 | 169 ft | 15 kts | 227° |
| 2026-05-07 12:41 | 32.69299 | -16.77844 | 169 ft | 9 kts | 232° |
| 2026-05-07 12:41 | 32.69290 | -16.77875 | 169 ft | 0 kts | 258° |
| 2026-05-07 12:42 | 32.69289 | -16.77877 | 169 ft | 2 kts | 258° |
| 2026-05-07 12:42 | 32.69288 | -16.77912 | 169 ft | 7 kts | 269° |
| 2026-05-07 12:43 | 32.69287 | -16.77994 | 169 ft | 13 kts | 270° |
| 2026-05-07 12:43 | 32.69230 | -16.78098 | 167 ft | 18 kts | 224° |
| 2026-05-07 12:43 | 32.69131 | -16.78213 | 161 ft | 22 kts | 224° |
| 2026-05-07 12:43 | 32.69036 | -16.78325 | 156 ft | 12 kts | 224° |
| 2026-05-07 12:44 | 32.68967 | -16.78390 | 154 ft | 13 kts | 197° |
| 2026-05-07 12:44 | 32.68893 | -16.78419 | 154 ft | 10 kts | 216° |
| 2026-05-07 12:44 | 32.68909 | -16.78472 | 154 ft | 6 kts | 4° |
| 2026-05-07 12:44 | 32.68922 | -16.78458 | 154 ft | 0 kts | 45° |
| 2026-05-07 12:45 | 32.68923 | -16.78457 | 154 ft | 2 kts | 45° |
| 2026-05-07 12:45 | 32.69129 | -16.78217 | 161 ft | 81 kts | 44° |
| 2026-05-07 12:45 | 32.69708 | -16.77541 | 181 ft | 146 kts | 45° |
| 2026-05-07 12:45 | 32.70479 | -16.76620 | 628 ft | 160 kts | 45° |
| 2026-05-07 12:46 | 32.71026 | -16.75472 | 1341 ft | 162 kts | 76° |
| 2026-05-07 12:46 | 32.70987 | -16.74149 | 1983 ft | 166 kts | 108° |
| 2026-05-07 12:46 | 32.70562 | -16.72789 | 2395 ft | 187 kts | 111° |
| 2026-05-07 12:46 | 32.70071 | -16.71252 | 2777 ft | 212 kts | 112° |
| 2026-05-07 12:47 | 32.69518 | -16.69519 | 3283 ft | 237 kts | 111° |
| 2026-05-07 12:47 | 32.68908 | -16.67593 | 3887 ft | 261 kts | 111° |
| 2026-05-07 12:47 | 32.68257 | -16.65528 | 4850 ft | 271 kts | 111° |
| 2026-05-07 12:47 | 32.67589 | -16.63399 | 5790 ft | 278 kts | 110° |
| 2026-05-07 12:48 | 32.66909 | -16.61224 | 6734 ft | 284 kts | 111° |
| 2026-05-07 12:48 | 32.66235 | -16.58996 | 7627 ft | 290 kts | 107° |
| 2026-05-07 12:48 | 32.65966 | -16.56599 | 8519 ft | 297 kts | 88° |
| 2026-05-07 12:48 | 32.66328 | -16.54173 | 9415 ft | 302 kts | 69° |
| 2026-05-07 12:49 | 32.67303 | -16.51961 | 10258 ft | 306 kts | 51° |
| 2026-05-07 12:49 | 32.68799 | -16.50050 | 10632 ft | 328 kts | 41° |
| 2026-05-07 12:49 | 32.70500 | -16.48132 | 11135 ft | 344 kts | 41° |
| 2026-05-07 12:49 | 32.72259 | -16.46156 | 11848 ft | 352 kts | 41° |
| 2026-05-07 12:50 | 32.74055 | -16.44129 | 12595 ft | 360 kts | 41° |
| 2026-05-07 12:50 | 32.75883 | -16.42056 | 13330 ft | 367 kts | 41° |
| 2026-05-07 12:50 | 32.77113 | -16.40656 | 13815 ft | 372 kts | 42° |
| 2026-05-07 12:50 | 32.78996 | -16.38503 | 14460 ft | 379 kts | 42° |
| 2026-05-07 12:51 | 32.80910 | -16.36306 | 15082 ft | 386 kts | 42° |
| 2026-05-07 12:51 | 32.82855 | -16.34073 | 15708 ft | 392 kts | 41° |
| 2026-05-07 12:51 | 32.84833 | -16.31804 | 16333 ft | 398 kts | 41° |
| 2026-05-07 12:51 | 32.86845 | -16.29500 | 16951 ft | 405 kts | 41° |
| 2026-05-07 12:52 | 32.88888 | -16.27157 | 17571 ft | 411 kts | 41° |
| 2026-05-07 12:52 | 32.90960 | -16.24778 | 18171 ft | 417 kts | 41° |
| 2026-05-07 12:52 | 32.93063 | -16.22361 | 18729 ft | 423 kts | 41° |
| 2026-05-07 12:52 | 32.95190 | -16.19914 | 19313 ft | 427 kts | 41° |
| 2026-05-07 12:53 | 32.97334 | -16.17447 | 19902 ft | 431 kts | 41° |
| 2026-05-07 12:53 | 32.99493 | -16.14957 | 20501 ft | 434 kts | 41° |
| 2026-05-07 12:53 | 33.01671 | -16.12444 | 21104 ft | 437 kts | 41° |
| 2026-05-07 12:53 | 33.03865 | -16.09914 | 21686 ft | 441 kts | 41° |
| 2026-05-07 12:54 | 33.06080 | -16.07364 | 22283 ft | 444 kts | 41° |
| 2026-05-07 12:54 | 33.08307 | -16.04798 | 22876 ft | 447 kts | 41° |
| 2026-05-07 12:54 | 33.10550 | -16.02209 | 23470 ft | 450 kts | 41° |
| 2026-05-07 12:54 | 33.12808 | -15.99602 | 23970 ft | 453 kts | 41° |
| 2026-05-07 12:55 | 33.15082 | -15.96974 | 24428 ft | 457 kts | 41° |
| 2026-05-07 12:55 | 33.17371 | -15.94325 | 24872 ft | 460 kts | 41° |
| 2026-05-07 12:55 | 33.19674 | -15.91653 | 25308 ft | 463 kts | 41° |
| 2026-05-07 12:55 | 33.21989 | -15.88965 | 25732 ft | 466 kts | 41° |
| 2026-05-07 12:56 | 33.24322 | -15.86255 | 26167 ft | 470 kts | 42° |
| 2026-05-07 12:56 | 33.26674 | -15.83527 | 26577 ft | 473 kts | 42° |
| 2026-05-07 12:56 | 33.29042 | -15.80779 | 26969 ft | 476 kts | 42° |
| 2026-05-07 12:56 | 33.31427 | -15.78008 | 27367 ft | 479 kts | 42° |
| 2026-05-07 12:57 | 33.33822 | -15.75219 | 27755 ft | 483 kts | 42° |
| 2026-05-07 12:57 | 33.36235 | -15.72409 | 28144 ft | 486 kts | 42° |
| 2026-05-07 12:57 | 33.38667 | -15.69575 | 28535 ft | 490 kts | 42° |
| 2026-05-07 12:57 | 33.41114 | -15.66720 | 28919 ft | 493 kts | 42° |
| 2026-05-07 12:58 | 33.43581 | -15.63853 | 29299 ft | 496 kts | 42° |
| 2026-05-07 12:58 | 33.46089 | -15.60999 | 29661 ft | 499 kts | 41° |
| 2026-05-07 12:58 | 33.48636 | -15.58149 | 30032 ft | 502 kts | 41° |
| 2026-05-07 12:58 | 33.51205 | -15.55294 | 30351 ft | 505 kts | 40° |
| 2026-05-07 12:59 | 33.53788 | -15.52418 | 30675 ft | 508 kts | 41° |
| 2026-05-07 12:59 | 33.56376 | -15.49526 | 30985 ft | 510 kts | 41° |
| 2026-05-07 12:59 | 33.58967 | -15.46615 | 31307 ft | 512 kts | 41° |
| 2026-05-07 12:59 | 33.61566 | -15.43679 | 31627 ft | 514 kts | 41° |
| 2026-05-07 13:00 | 33.64164 | -15.40729 | 31991 ft | 514 kts | 41° |
| 2026-05-07 13:00 | 33.66756 | -15.37779 | 32454 ft | 513 kts | 41° |
| 2026-05-07 13:00 | 33.69344 | -15.34837 | 32904 ft | 511 kts | 41° |
| 2026-05-07 13:00 | 33.71922 | -15.31913 | 33356 ft | 510 kts | 41° |
| 2026-05-07 13:01 | 33.74502 | -15.28992 | 33845 ft | 509 kts | 41° |
| 2026-05-07 13:01 | 33.77081 | -15.26078 | 34212 ft | 508 kts | 41° |
| 2026-05-07 13:01 | 33.79652 | -15.23171 | 34586 ft | 508 kts | 41° |
| 2026-05-07 13:01 | 33.82217 | -15.20261 | 34930 ft | 507 kts | 40° |
| 2026-05-07 13:02 | 33.84783 | -15.17340 | 35274 ft | 507 kts | 40° |
| 2026-05-07 13:02 | 33.87341 | -15.14423 | 35611 ft | 507 kts | 40° |
| 2026-05-07 13:02 | 33.89897 | -15.11505 | 35937 ft | 507 kts | 40° |
| 2026-05-07 13:02 | 33.92455 | -15.08581 | 36246 ft | 507 kts | 40° |
| 2026-05-07 13:03 | 33.95006 | -15.05656 | 36556 ft | 506 kts | 40° |
| 2026-05-07 13:03 | 33.97556 | -15.02733 | 36870 ft | 506 kts | 40° |
| 2026-05-07 13:03 | 34.00110 | -14.99810 | 37162 ft | 506 kts | 40° |
| 2026-05-07 13:03 | 34.02664 | -14.96889 | 37452 ft | 506 kts | 40° |
| 2026-05-07 13:04 | 34.05215 | -14.93969 | 37736 ft | 506 kts | 40° |
| 2026-05-07 13:04 | 34.07768 | -14.91050 | 37980 ft | 507 kts | 39° |
| 2026-05-07 13:04 | 34.12869 | -14.85199 | 38041 ft | 505 kts | 40° |
| 2026-05-07 13:05 | 34.17945 | -14.79357 | 38038 ft | 504 kts | 40° |
| 2026-05-07 13:05 | 34.23018 | -14.73508 | 38040 ft | 504 kts | 40° |
| 2026-05-07 13:06 | 34.28087 | -14.67656 | 38037 ft | 504 kts | 40° |
| 2026-05-07 13:06 | 34.33146 | -14.61792 | 38043 ft | 504 kts | 40° |
| 2026-05-07 13:07 | 34.38208 | -14.55926 | 38047 ft | 504 kts | 40° |
| 2026-05-07 13:07 | 34.43270 | -14.50055 | 38047 ft | 504 kts | 40° |
| 2026-05-07 13:08 | 34.48330 | -14.44180 | 38056 ft | 504 kts | 40° |
| 2026-05-07 13:08 | 34.53349 | -14.38333 | 38054 ft | 503 kts | 40° |
| 2026-05-07 13:09 | 34.58393 | -14.32445 | 38053 ft | 503 kts | 40° |
| 2026-05-07 13:09 | 34.63433 | -14.26548 | 38052 ft | 503 kts | 40° |
| 2026-05-07 13:10 | 34.68467 | -14.20655 | 38051 ft | 503 kts | 40° |
| 2026-05-07 13:10 | 34.73496 | -14.14751 | 38047 ft | 502 kts | 40° |
| 2026-05-07 13:11 | 34.78519 | -14.08855 | 38046 ft | 502 kts | 40° |
| 2026-05-07 13:11 | 34.83536 | -14.02949 | 38041 ft | 502 kts | 40° |
| 2026-05-07 13:12 | 34.88545 | -13.97036 | 38053 ft | 501 kts | 40° |
| 2026-05-07 13:12 | 34.93555 | -13.91119 | 38041 ft | 501 kts | 40° |
| 2026-05-07 13:13 | 34.98555 | -13.85201 | 38046 ft | 501 kts | 40° |
| 2026-05-07 13:13 | 35.03553 | -13.79275 | 38044 ft | 501 kts | 40° |
| 2026-05-07 13:14 | 35.08547 | -13.73339 | 38034 ft | 501 kts | 40° |
| 2026-05-07 13:14 | 35.13536 | -13.67405 | 38046 ft | 501 kts | 40° |
| 2026-05-07 13:15 | 35.18524 | -13.61456 | 38035 ft | 501 kts | 40° |
| 2026-05-07 13:15 | 35.23507 | -13.55507 | 38036 ft | 501 kts | 41° |
| 2026-05-07 13:16 | 35.28482 | -13.49537 | 38035 ft | 501 kts | 41° |
| 2026-05-07 13:16 | 35.33457 | -13.43576 | 38035 ft | 500 kts | 41° |
| 2026-05-07 13:17 | 35.38435 | -13.37616 | 38032 ft | 500 kts | 40° |
| 2026-05-07 13:17 | 35.43399 | -13.31652 | 38032 ft | 500 kts | 41° |
| 2026-05-07 13:18 | 35.48350 | -13.25671 | 38031 ft | 499 kts | 41° |
| 2026-05-07 13:18 | 35.53305 | -13.19690 | 38030 ft | 499 kts | 41° |
| 2026-05-07 13:19 | 35.58251 | -13.13712 | 38029 ft | 499 kts | 41° |
| 2026-05-07 13:19 | 35.63191 | -13.07714 | 38029 ft | 499 kts | 41° |
| 2026-05-07 13:20 | 35.68132 | -13.01715 | 38032 ft | 499 kts | 41° |
| 2026-05-07 13:20 | 35.73071 | -12.95710 | 38031 ft | 499 kts | 41° |
| 2026-05-07 13:21 | 35.78003 | -12.89694 | 38032 ft | 499 kts | 41° |
| 2026-05-07 13:21 | 35.82932 | -12.83685 | 38029 ft | 498 kts | 41° |
| 2026-05-07 13:22 | 35.87853 | -12.77665 | 38027 ft | 498 kts | 41° |
| 2026-05-07 13:22 | 35.92766 | -12.71638 | 38024 ft | 498 kts | 41° |
| 2026-05-07 13:23 | 35.97674 | -12.65609 | 38022 ft | 497 kts | 41° |
| 2026-05-07 13:23 | 36.02481 | -12.59464 | 38021 ft | 500 kts | 49° |
| 2026-05-07 13:24 | 36.05970 | -12.52027 | 38014 ft | 503 kts | 69° |
| 2026-05-07 13:24 | 36.07748 | -12.43691 | 38007 ft | 502 kts | 79° |
| 2026-05-07 13:25 | 36.09231 | -12.35271 | 38000 ft | 502 kts | 79° |
| 2026-05-07 13:25 | 36.10706 | -12.26836 | 37993 ft | 502 kts | 79° |
| 2026-05-07 13:26 | 36.12166 | -12.18398 | 37993 ft | 502 kts | 79° |
| 2026-05-07 13:26 | 36.13617 | -12.09950 | 37996 ft | 502 kts | 79° |
| 2026-05-07 13:27 | 36.15065 | -12.01498 | 37996 ft | 502 kts | 79° |
| 2026-05-07 13:27 | 36.16514 | -11.93045 | 37999 ft | 502 kts | 79° |
| 2026-05-07 13:28 | 36.17953 | -11.84589 | 38000 ft | 502 kts | 79° |
| 2026-05-07 13:28 | 36.19383 | -11.76130 | 38002 ft | 502 kts | 79° |
| 2026-05-07 13:29 | 36.20808 | -11.67669 | 38004 ft | 502 kts | 79° |
| 2026-05-07 13:29 | 36.22222 | -11.59204 | 38007 ft | 502 kts | 79° |
| 2026-05-07 13:30 | 36.23630 | -11.50729 | 38000 ft | 502 kts | 79° |
| 2026-05-07 13:30 | 36.25035 | -11.42266 | 38000 ft | 502 kts | 79° |
| 2026-05-07 13:31 | 36.26450 | -11.33800 | 38004 ft | 502 kts | 79° |
| 2026-05-07 13:31 | 36.27843 | -11.25332 | 37999 ft | 502 kts | 79° |
| 2026-05-07 13:32 | 36.29231 | -11.16856 | 38005 ft | 502 kts | 79° |
| 2026-05-07 13:32 | 36.30610 | -11.08379 | 38000 ft | 502 kts | 79° |
| 2026-05-07 13:33 | 36.31988 | -10.99903 | 38000 ft | 501 kts | 79° |
| 2026-05-07 13:33 | 36.33127 | -10.92858 | 37999 ft | 501 kts | 79° |
| 2026-05-07 13:34 | 36.35164 | -10.80141 | 37992 ft | 501 kts | 79° |
| 2026-05-07 13:35 | 36.36527 | -10.71609 | 37988 ft | 501 kts | 79° |
| 2026-05-07 13:35 | 36.37869 | -10.63182 | 37989 ft | 501 kts | 79° |
| 2026-05-07 13:36 | 36.39223 | -10.54644 | 37992 ft | 501 kts | 79° |
| 2026-05-07 13:36 | 36.40550 | -10.46218 | 37991 ft | 501 kts | 79° |
| 2026-05-07 13:37 | 36.41877 | -10.37732 | 37989 ft | 501 kts | 79° |
| 2026-05-07 13:37 | 36.43202 | -10.29247 | 37987 ft | 501 kts | 79° |
| 2026-05-07 13:38 | 36.44530 | -10.20760 | 37984 ft | 500 kts | 79° |
| 2026-05-07 13:38 | 36.45839 | -10.12274 | 37979 ft | 500 kts | 79° |
| 2026-05-07 13:39 | 36.47145 | -10.03782 | 37982 ft | 500 kts | 79° |
| 2026-05-07 13:39 | 36.48443 | -9.95295 | 37977 ft | 500 kts | 79° |
| 2026-05-07 13:39 | 36.49089 | -9.91045 | 37859 ft | 501 kts | 79° |
| 2026-05-07 13:40 | 36.49735 | -9.86778 | 37227 ft | 503 kts | 79° |
| 2026-05-07 13:40 | 36.50380 | -9.82517 | 36677 ft | 500 kts | 79° |
| 2026-05-07 13:40 | 36.51020 | -9.78279 | 36094 ft | 498 kts | 79° |
| 2026-05-07 13:40 | 36.51661 | -9.74054 | 35486 ft | 498 kts | 79° |
| 2026-05-07 13:41 | 36.52308 | -9.69772 | 34869 ft | 497 kts | 79° |
| 2026-05-07 13:41 | 36.52933 | -9.65600 | 34268 ft | 497 kts | 79° |
| 2026-05-07 13:41 | 36.53563 | -9.61376 | 33618 ft | 497 kts | 79° |
| 2026-05-07 13:41 | 36.54189 | -9.57170 | 33014 ft | 494 kts | 79° |
| 2026-05-07 13:42 | 36.54811 | -9.52974 | 32407 ft | 492 kts | 79° |
| 2026-05-07 13:42 | 36.55430 | -9.48800 | 31807 ft | 490 kts | 79° |
| 2026-05-07 13:42 | 36.56047 | -9.44648 | 31214 ft | 488 kts | 79° |
| 2026-05-07 13:42 | 36.56660 | -9.40505 | 30626 ft | 485 kts | 79° |
| 2026-05-07 13:43 | 36.57270 | -9.36392 | 30044 ft | 483 kts | 79° |
| 2026-05-07 13:43 | 36.57874 | -9.32296 | 29433 ft | 479 kts | 79° |
| 2026-05-07 13:43 | 36.58479 | -9.28185 | 28868 ft | 474 kts | 79° |
| 2026-05-07 13:43 | 36.59068 | -9.24174 | 28337 ft | 469 kts | 79° |
| 2026-05-07 13:44 | 36.59647 | -9.20206 | 27812 ft | 464 kts | 79° |
| 2026-05-07 13:44 | 36.60216 | -9.16274 | 27292 ft | 459 kts | 79° |
| 2026-05-07 13:44 | 36.60779 | -9.12393 | 26782 ft | 454 kts | 79° |
| 2026-05-07 13:44 | 36.61337 | -9.08544 | 26280 ft | 450 kts | 79° |
| 2026-05-07 13:45 | 36.61889 | -9.04722 | 25765 ft | 446 kts | 79° |
| 2026-05-07 13:45 | 36.62435 | -9.00932 | 25239 ft | 444 kts | 79° |
| 2026-05-07 13:45 | 36.62978 | -8.97162 | 24763 ft | 440 kts | 79° |
| 2026-05-07 13:45 | 36.63513 | -8.93439 | 24192 ft | 436 kts | 79° |
| 2026-05-07 13:46 | 36.64042 | -8.89752 | 23678 ft | 430 kts | 79° |
| 2026-05-07 13:46 | 36.64564 | -8.86097 | 23096 ft | 425 kts | 80° |
| 2026-05-07 13:46 | 36.65078 | -8.82494 | 22468 ft | 421 kts | 80° |
| 2026-05-07 13:46 | 36.65575 | -8.78981 | 21954 ft | 414 kts | 80° |
| 2026-05-07 13:47 | 36.66072 | -8.75479 | 21437 ft | 407 kts | 80° |
| 2026-05-07 13:47 | 36.66569 | -8.71990 | 20922 ft | 401 kts | 80° |
| 2026-05-07 13:47 | 36.67047 | -8.68638 | 20433 ft | 396 kts | 80° |
| 2026-05-07 13:47 | 36.67530 | -8.65233 | 19938 ft | 393 kts | 80° |
| 2026-05-07 13:48 | 36.67994 | -8.61929 | 19453 ft | 392 kts | 80° |
| 2026-05-07 13:48 | 36.68462 | -8.58591 | 18964 ft | 391 kts | 80° |
| 2026-05-07 13:48 | 36.68929 | -8.55258 | 18481 ft | 390 kts | 80° |
| 2026-05-07 13:48 | 36.69394 | -8.51930 | 17964 ft | 389 kts | 80° |
| 2026-05-07 13:49 | 36.69863 | -8.48580 | 17474 ft | 385 kts | 80° |
| 2026-05-07 13:49 | 36.70312 | -8.45366 | 17016 ft | 380 kts | 80° |
| 2026-05-07 13:49 | 36.70761 | -8.42143 | 16560 ft | 375 kts | 80° |
| 2026-05-07 13:49 | 36.71201 | -8.38964 | 16114 ft | 370 kts | 80° |
| 2026-05-07 13:50 | 36.71635 | -8.35819 | 15669 ft | 366 kts | 80° |
| 2026-05-07 13:50 | 36.72063 | -8.32713 | 15237 ft | 362 kts | 80° |
| 2026-05-07 13:50 | 36.72485 | -8.29641 | 14801 ft | 358 kts | 80° |
| 2026-05-07 13:50 | 36.72904 | -8.26599 | 14376 ft | 354 kts | 80° |
| 2026-05-07 13:51 | 36.73318 | -8.23590 | 13957 ft | 350 kts | 80° |
| 2026-05-07 13:51 | 36.73725 | -8.20609 | 13500 ft | 347 kts | 80° |
| 2026-05-07 13:51 | 36.74127 | -8.17664 | 13078 ft | 342 kts | 80° |
| 2026-05-07 13:51 | 36.74521 | -8.14776 | 12657 ft | 338 kts | 80° |
| 2026-05-07 13:52 | 36.74911 | -8.11908 | 12248 ft | 334 kts | 80° |
| 2026-05-07 13:52 | 36.75297 | -8.09064 | 11825 ft | 332 kts | 80° |
| 2026-05-07 13:52 | 36.75679 | -8.06238 | 11403 ft | 330 kts | 80° |
| 2026-05-07 13:52 | 36.76057 | -8.03455 | 11217 ft | 320 kts | 80° |
| 2026-05-07 13:53 | 36.76462 | -8.00769 | 10988 ft | 312 kts | 75° |
| 2026-05-07 13:53 | 36.77202 | -7.98244 | 10648 ft | 309 kts | 68° |
| 2026-05-07 13:53 | 36.78010 | -7.95770 | 10284 ft | 306 kts | 68° |
| 2026-05-07 13:53 | 36.78806 | -7.93324 | 9820 ft | 303 kts | 68° |
| 2026-05-07 13:54 | 36.79593 | -7.90898 | 9312 ft | 300 kts | 68° |
| 2026-05-07 13:54 | 36.80368 | -7.88500 | 8813 ft | 297 kts | 68° |
| 2026-05-07 13:54 | 36.81130 | -7.86127 | 8320 ft | 293 kts | 68° |
| 2026-05-07 13:54 | 36.81883 | -7.83780 | 7865 ft | 288 kts | 68° |
| 2026-05-07 13:55 | 36.82626 | -7.81474 | 7378 ft | 284 kts | 68° |
| 2026-05-07 13:55 | 36.83358 | -7.79200 | 6888 ft | 281 kts | 68° |
| 2026-05-07 13:55 | 36.84081 | -7.76955 | 6443 ft | 276 kts | 68° |
| 2026-05-07 13:55 | 36.84791 | -7.74755 | 6003 ft | 271 kts | 68° |
| 2026-05-07 13:56 | 36.85488 | -7.72596 | 5576 ft | 266 kts | 67° |
| 2026-05-07 13:56 | 36.86453 | -7.70670 | 5167 ft | 260 kts | 49° |
| 2026-05-07 13:56 | 36.87813 | -7.69280 | 4986 ft | 245 kts | 30° |
| 2026-05-07 13:56 | 36.89339 | -7.68500 | 4928 ft | 231 kts | 14° |
| 2026-05-07 13:57 | 36.90893 | -7.68241 | 4833 ft | 221 kts | 5° |
| 2026-05-07 13:57 | 36.92388 | -7.68077 | 4734 ft | 211 kts | 5° |
| 2026-05-07 13:57 | 36.93801 | -7.67920 | 4653 ft | 198 kts | 5° |
| 2026-05-07 13:57 | 36.95134 | -7.67770 | 4543 ft | 186 kts | 5° |
| 2026-05-07 13:58 | 36.96366 | -7.67959 | 4449 ft | 174 kts | 335° |
| 2026-05-07 13:58 | 36.97266 | -7.68858 | 4327 ft | 163 kts | 304° |
| 2026-05-07 13:58 | 36.97657 | -7.70135 | 4095 ft | 154 kts | 277° |
| 2026-05-07 13:58 | 36.97836 | -7.71422 | 3905 ft | 147 kts | 278° |
| 2026-05-07 13:59 | 36.98016 | -7.72673 | 3724 ft | 145 kts | 277° |
| 2026-05-07 13:59 | 36.98194 | -7.73911 | 3533 ft | 144 kts | 277° |
| 2026-05-07 13:59 | 36.98369 | -7.75120 | 3349 ft | 136 kts | 277° |
| 2026-05-07 13:59 | 36.98533 | -7.76258 | 3173 ft | 131 kts | 276° |
| 2026-05-07 14:00 | 36.98694 | -7.77375 | 2996 ft | 129 kts | 276° |
| 2026-05-07 14:00 | 36.98852 | -7.78478 | 2819 ft | 128 kts | 276° |
| 2026-05-07 14:00 | 36.99010 | -7.79573 | 2655 ft | 128 kts | 275° |
| 2026-05-07 14:00 | 36.99166 | -7.80664 | 2498 ft | 127 kts | 275° |
| 2026-05-07 14:01 | 36.99322 | -7.81745 | 2314 ft | 125 kts | 275° |
| 2026-05-07 14:01 | 36.99475 | -7.82812 | 2144 ft | 125 kts | 275° |
| 2026-05-07 14:01 | 36.99629 | -7.83885 | 1981 ft | 126 kts | 275° |
| 2026-05-07 14:01 | 36.99782 | -7.84951 | 1817 ft | 125 kts | 276° |
| 2026-05-07 14:02 | 36.99934 | -7.86016 | 1658 ft | 124 kts | 276° |
| 2026-05-07 14:02 | 37.00086 | -7.87076 | 1488 ft | 123 kts | 276° |
| 2026-05-07 14:02 | 37.00237 | -7.88146 | 1306 ft | 125 kts | 275° |
| 2026-05-07 14:02 | 37.00384 | -7.89207 | 1121 ft | 122 kts | 276° |
| 2026-05-07 14:03 | 37.00436 | -7.89561 | 1073 ft | 123 kts | 277° |
| 2026-05-07 14:03 | 37.00572 | -7.90433 | 940 ft | 121 kts | 276° |
| 2026-05-07 14:03 | 37.00715 | -7.91468 | 780 ft | 122 kts | 275° |
| 2026-05-07 14:03 | 37.00864 | -7.92513 | 601 ft | 122 kts | 275° |
| 2026-05-07 14:04 | 37.01020 | -7.93546 | 446 ft | 120 kts | 274° |
| 2026-05-07 14:04 | 37.01165 | -7.94573 | 284 ft | 120 kts | 275° |
| 2026-05-07 14:04 | 37.01304 | -7.95601 | 113 ft | 120 kts | 274° |
| 2026-05-07 14:04 | 37.01444 | -7.96601 | 23 ft | 102 kts | 279° |
| 2026-05-07 14:05 | 37.01517 | -7.97108 | 21 ft | 28 kts | 281° |
| 2026-05-07 14:05 | 37.01550 | -7.97345 | 19 ft | 29 kts | 280° |
| 2026-05-07 14:05 | 37.01586 | -7.97601 | 20 ft | 29 kts | 279° |
| 2026-05-07 14:05 | 37.01616 | -7.97816 | 21 ft | 17 kts | 286° |
| 2026-05-07 14:06 | 37.01711 | -7.97826 | 20 ft | 17 kts | 44° |
| 2026-05-07 14:06 | 37.01764 | -7.97694 | 20 ft | 17 kts | 75° |
| 2026-05-07 14:06 | 37.01763 | -7.97542 | 20 ft | 18 kts | 100° |
| 2026-05-07 14:06 | 37.01741 | -7.97383 | 22 ft | 19 kts | 100° |
| 2026-05-07 14:07 | 37.01717 | -7.97218 | 20 ft | 19 kts | 101° |
| 2026-05-07 14:07 | 37.01693 | -7.97050 | 20 ft | 20 kts | 100° |
| 2026-05-07 14:07 | 37.01688 | -7.96923 | 22 ft | 12 kts | 56° |
| 2026-05-07 14:07 | 37.01770 | -7.96894 | 20 ft | 13 kts | 9° |
| 2026-05-07 14:08 | 37.01828 | -7.96834 | 20 ft | 12 kts | 90° |
| 2026-05-07 14:08 | 37.01816 | -7.96738 | 20 ft | 8 kts | 99° |
| 2026-05-07 14:08 | 37.01849 | -7.96708 | 20 ft | 7 kts | 10° |
| 2026-05-07 14:08 | 37.01889 | -7.96700 | 20 ft | 2 kts | 9° |
| 2026-05-07 14:09 | 37.01899 | -7.96698 | 20 ft | 0 kts | 9° |
| 2026-05-07 14:09 | 37.01902 | -7.96697 | 28 ft | 0 kts | 11° |